EDDW 200050Z AUTO 27011KT 9999 OVC016 15/12 Q1020 EDDW 200020Z AUTO 29011KT 9999 FEW010 BKN017 15/13 Q1020 EDDW 192350Z AUTO 27008KT 9999 SCT012 15/13 Q1019 EDDW 192320Z AUTO 27010KT 9999 FEW014 SCT018 16/14 Q1019 EDDW 192250Z AUTO 28007KT 9999 BKN010 BKN016 BKN032 17/15 Q1019 EDDW 192220Z AUTO 27012KT 9999 FEW014 SCT021 17/15 Q1019 EDDW 192150Z AUTO 23008KT 9999 SCT020 BKN034 BKN042 17/16 Q1018 EDDW 192120Z AUTO 23006KT CAVOK 17/16 Q1018 EDDW 192050Z AUTO 24006KT 9999 FEW011 17/16 Q1018 TEMPO BKN010 EDDW 192020Z AUTO 24006KT 9999 FEW011 17/16 Q1018 TEMPO BKN010 EDDW 191950Z AUTO 24008KT 9999 BKN010 BKN014 18/17 Q1017 TEMPO 28008KT BKN015 EDDW 191920Z AUTO 23009KT 9999 BKN009 18/17 Q1017 EDDW 191850Z AUTO 21009KT 180V250 9999 BKN006 18/17 Q1017 TEMPO 28008KT SCT006 EDDW 191820Z AUTO 21005KT 170V230 9999 SCT007 19/17 Q1017 BECMG 28007KT EDDW 191750Z AUTO 17002KT 9999 BKN006 18/17 Q1016 BECMG 28007KT FEW006 EDDW 191720Z AUTO VRB02KT CAVOK 18/17 Q1016 BECMG 28007KT EDDW 191650Z AUTO 09006KT 060V120 CAVOK 18/17 Q1015 RESHRA BECMG 28008KT EDDW 191620Z AUTO 33003KT 280V070 7000 -RA FEW013 18/17 Q1016 RESHRA TEMPO 28008KT RA EDDW 191550Z AUTO 30019G30KT 9000 SHRA VCTS SCT013 FEW///CB 20/18 Q1018 RETS TEMPO FM1430 24020G35KT TSRA BKN012CB EDDW 191520Z AUTO 28011KT 9999 TSRA SCT///CB 21/17 Q1017 TEMPO 24025G40KT 3000 NSW FEW008 BKN015CB EDDW 191450Z AUTO 25010KT 220V280 9999 -RA NSC 23/15 Q1016 TEMPO 24025G40KT 3500 TSRA FEW008 BKN015CB EDDW 191420Z AUTO 16006KT CAVOK 26/15 Q1015 TEMPO 24025G40KT 3000 +TSRA FEW008 BKN015CB EDDW 191350Z AUTO 16006KT 140V200 CAVOK 27/14 Q1015 TEMPO FM1430 24020G35KT TSRA BKN015CB EDDW 191320Z AUTO 17007KT 130V190 CAVOK 27/14 Q1015 TEMPO FM1430 24020G35KT TSRA BKN015CB EDDW 191250Z AUTO 17004KT 140V220 CAVOK 27/13 Q1016 TEMPO 20009KT EDDW 191220Z AUTO VRB03KT CAVOK 28/14 Q1016 TEMPO 20009KT EDDW 191150Z AUTO VRB05KT CAVOK 28/14 Q1016 TEMPO 23009KT EDDW 191120Z AUTO 15003KT 050V210 CAVOK 28/14 Q1016 TEMPO 23009KT EDDW 191050Z AUTO 21004KT 120V290 CAVOK 27/14 Q1017 TEMPO 23009KT EDDW 191020Z AUTO VRB03KT CAVOK 27/14 Q1017 TEMPO 23009KT EDDW 190950Z AUTO 25004KT 210V290 CAVOK 26/14 Q1017 TEMPO 25009KT EDDW 190920Z AUTO 25007KT 190V300 CAVOK 26/14 Q1018 NOSIG EDDW 190850Z AUTO 24011KT 200V270 CAVOK 26/14 Q1018 NOSIG EDDW 190820Z AUTO 20009KT 180V240 CAVOK 25/14 Q1018 NOSIG EDDW 190750Z AUTO 22011KT 190V250 CAVOK 24/13 Q1018 NOSIG EDDW 190720Z AUTO 19010KT CAVOK 24/14 Q1018 NOSIG EDDW 190650Z AUTO 17008KT CAVOK 23/15 Q1018 NOSIG EDDW 190620Z AUTO 15008KT CAVOK 21/15 Q1018 NOSIG EDDW 190550Z AUTO 14005KT CAVOK 19/14 Q1018 NOSIG EDDW 190520Z AUTO 14005KT CAVOK 19/14 Q1018 NOSIG EDDW 190450Z AUTO 14003KT 100V180 CAVOK 19/14 Q1018 NOSIG EDDW 190420Z AUTO 14003KT CAVOK 18/14 Q1018 NOSIG EDDW 190350Z AUTO VRB02KT CAVOK 17/14 Q1018 NOSIG EDDW 190320Z AUTO 13004KT 100V160 CAVOK 17/14 Q1018 EDDW 190250Z AUTO 13003KT 100V160 7000 NSC 17/14 Q1018 EDDW 190220Z AUTO 14002KT 3300 BR NSC 14/14 Q1018 EDDW 190150Z AUTO 22001KT 4800 BR NSC 15/13 Q1019 EDDW 190120Z AUTO 15002KT 6000 NSC 16/15 Q1018 EDDW 190050Z AUTO VRB02KT 6000 NSC 15/14 Q1019 EDDW 190020Z AUTO VRB01KT 7000 NSC 16/14 Q1019 EDDW 182350Z AUTO 29004KT 8000 NSC 15/14 Q1019 EDDW 182320Z AUTO VRB02KT CAVOK 17/14 Q1019 EDDW 182250Z AUTO 29005KT CAVOK 17/14 Q1019 EDDW 182220Z AUTO 30004KT CAVOK 18/15 Q1019 EDDW 182150Z AUTO 31005KT CAVOK 19/15 Q1019 EDDW 182120Z AUTO 15002KT CAVOK 20/15 Q1019 EDDW 182050Z AUTO VRB01KT CAVOK 21/15 Q1019 NOSIG EDDW 182020Z AUTO 26003KT CAVOK 22/15 Q1019 NOSIG EDDW 181950Z AUTO 28003KT 230V320 CAVOK 23/15 Q1019 NOSIG EDDW 181920Z AUTO 15006KT CAVOK 23/15 Q1019 NOSIG EDDW 181850Z AUTO 14005KT CAVOK 24/15 Q1019 NOSIG EDDW 181820Z AUTO 14004KT CAVOK 25/15 Q1019 NOSIG EDDW 181750Z AUTO 14005KT CAVOK 26/15 Q1019 BECMG 30004KT EDDW 181720Z AUTO 15005KT CAVOK 26/15 Q1019 BECMG 30004KT EDDW 181650Z AUTO 18006KT CAVOK 26/15 Q1019 BECMG FM1730 30004KT EDDW 181620Z AUTO 18004KT CAVOK 27/15 Q1019 BECMG 30005KT EDDW 181550Z AUTO 19007KT 160V220 CAVOK 27/14 Q1019 NOSIG EDDW 181520Z AUTO 20006KT 170V230 CAVOK 27/14 Q1019 NOSIG EDDW 181450Z AUTO 19006KT 150V230 CAVOK 28/12 Q1019 NOSIG EDDW 181420Z AUTO 20006KT 140V270 CAVOK 29/12 Q1019 NOSIG EDDW 181350Z AUTO 22008KT 190V270 CAVOK 29/11 Q1020 NOSIG EDDW 181320Z AUTO 21008KT 170V250 CAVOK 28/11 Q1020 NOSIG

METAR Messwerte "BREMEN" EDDW

Zurück zur Übersicht

Ortsname
Ländercode / m ü. NN
Zeit Temperatur Taupunkt Rel.
Luftfeuchte
Luftdruck:
Altimeter
NN
Station
Wind in Beaufort
(Knoten)
Sichtweite
(Meter)
Wolken
(Meter über Grund)
Wettererscheinung
BREMEN
DE 5
Fr 20.05. 02:50151282 %1020
1020
1019
W 4 (11)>= 10000Bedeckt (490) 
BREMEN
DE 5
Fr 20.05. 02:20151388 %1020
1020
1019
WNW 4 (11)>= 10000Stark bewölkt (520)
Leicht bewölkt (300)
 
BREMEN
DE 5
Fr 20.05. 01:50151388 %1019
1019
1018
W 3 (8)>= 10000Wolkig (370) 
BREMEN
DE 5
Fr 20.05. 01:20161488 %1019
1019
1018
W 3 (10)>= 10000Wolkig (550)
Leicht bewölkt (430)
 
BREMEN
DE 5
Fr 20.05. 00:50171588 %1019
1019
1018
W 3 (7)>= 10000Stark bewölkt (980)
Stark bewölkt (490)
Stark bewölkt (300)
 
BREMEN
DE 5
Fr 20.05. 00:20171588 %1019
1019
1018
W 4 (12)>= 10000Wolkig (640)
Leicht bewölkt (430)
 
BREMEN
DE 5
Do 19.05. 23:50171694 %1018
1018
1017
SW 3 (8)>= 10000Stark bewölkt (1300)
Stark bewölkt (1000)
Wolkig (610)
 
BREMEN
DE 5
Do 19.05. 23:20171694 %1018
1018
1017
SW 2 (6)>= 10000Nicht signifikant 
BREMEN
DE 5
Do 19.05. 22:50171694 %1018
1018
1017
WSW 2 (6)>= 10000Leicht bewölkt (340) 
BREMEN
DE 5
Do 19.05. 22:20171694 %1018
1018
1017
WSW 2 (6)>= 10000Leicht bewölkt (340) 
BREMEN
DE 5
Do 19.05. 21:50181794 %1017
1017
1016
WSW 3 (8)
Bald zeitweise:
W 3 (8)
>= 10000Stark bewölkt (430)
Stark bewölkt (300)
 
BREMEN
DE 5
Do 19.05. 21:20181794 %1017
1017
1016
SW 3 (9)>= 10000Stark bewölkt (270) 
BREMEN
DE 5
Do 19.05. 20:50181794 %1017
1017
1016
SSW 3 (9)
S - WSW
Bald zeitweise:
W 3 (8)
>= 10000Stark bewölkt (180) 
BREMEN
DE 5
Do 19.05. 20:20191788 %1017
1017
1016
SSW 2 (5)
S - SW
Bald Übergang zu:
W 3 (7)
>= 10000Wolkig (210) 
BREMEN
DE 5
Do 19.05. 19:50181794 %1016
1016
1015
S 1 (2)
Bald Übergang zu:
W 3 (7)
>= 10000Stark bewölkt (180) 
BREMEN
DE 5
Do 19.05. 19:20181794 %1016
1016
1015
Uml 1 (2)
Bald Übergang zu:
W 3 (7)
>= 10000Nicht signifikant 
BREMEN
DE 5
Do 19.05. 18:50181794 %1015
1015
1014
O 2 (6)
ONO - OSO
Bald Übergang zu:
W 3 (8)
>= 10000Nicht signifikant 
BREMEN
DE 5
Do 19.05. 18:20181794 %1016
1016
1015
NNW 2 (3)
W - ONO
Bald zeitweise:
W 3 (8)
7000Leicht bewölkt (400)Regen (schwach)
Bald zeitweise: Regen
BREMEN
DE 5
Do 19.05. 17:50201888 %1018
1018
1017
WNW 5 (19) - 7 (30)
Ab 16:30 zeitweise:
WSW 5 (20) - 8 (35)
9000Wolkig (400)Regen-Schauer
Ab 16:30 zeitweise: Gewitter mit Regen
BREMEN
DE 5
Do 19.05. 17:20211778 %1017
1017
1016
W 4 (11)
Bald zeitweise:
WSW 6 (25) - 8 (40)
>= 10000
Bald zeitweise: 3000
 Gewitter mit Regen
BREMEN
DE 5
Do 19.05. 16:50231561 %1016
1016
1015
WSW 3 (10)
SW - W
Bald zeitweise:
WSW 6 (25) - 8 (40)
>= 10000
Bald zeitweise: 3500
Nicht signifikantRegen (schwach)
Bald zeitweise: Gewitter mit Regen
BREMEN
DE 5
Do 19.05. 16:20261551 %1015
1015
1014
SSO 2 (6)
Bald zeitweise:
WSW 6 (25) - 8 (40)
>= 10000
Bald zeitweise: 3000
Nicht signifikant Bald zeitweise: Gewitter mit Regen (stark)
BREMEN
DE 5
Do 19.05. 15:50271445 %1015
1015
1014
SSO 2 (6)
SO - SSW
Ab 16:30 zeitweise:
WSW 5 (20) - 8 (35)
>= 10000Nicht signifikant Ab 16:30 zeitweise: Gewitter mit Regen
BREMEN
DE 5
Do 19.05. 15:20271445 %1015
1015
1014
S 3 (7)
SO - S
Ab 16:30 zeitweise:
WSW 5 (20) - 8 (35)
>= 10000Nicht signifikant Ab 16:30 zeitweise: Gewitter mit Regen
BREMEN
DE 5
Do 19.05. 14:50271342 %1016
1016
1015
S 2 (4)
SO - SW
Bald zeitweise:
SSW 3 (9)
>= 10000Nicht signifikant 
BREMEN
DE 5
Do 19.05. 14:20281442 %1016
1016
1015
Uml 2 (3)
Bald zeitweise:
SSW 3 (9)
>= 10000Nicht signifikant 
BREMEN
DE 5
Do 19.05. 13:50281442 %1016
1016
1015
Uml 2 (5)
Bald zeitweise:
SW 3 (9)
>= 10000Nicht signifikant 
BREMEN
DE 5
Do 19.05. 13:20281442 %1016
1016
1015
SSO 2 (3)
NO - SSW
Bald zeitweise:
SW 3 (9)
>= 10000Nicht signifikant 
BREMEN
DE 5
Do 19.05. 12:50271445 %1017
1017
1016
SSW 2 (4)
OSO - WNW
Bald zeitweise:
SW 3 (9)
>= 10000Nicht signifikant 
BREMEN
DE 5
Do 19.05. 12:20271445 %1017
1017
1016
Uml 2 (3)
Bald zeitweise:
SW 3 (9)
>= 10000Nicht signifikant 
BREMEN
DE 5
Do 19.05. 11:50261448 %1017
1017
1016
WSW 2 (4)
SSW - WNW
Bald zeitweise:
WSW 3 (9)
>= 10000Nicht signifikant 
BREMEN
DE 5
Do 19.05. 11:20261448 %1018
1018
1017
WSW 3 (7)
S - WNW
>= 10000Nicht signifikant 
BREMEN
DE 5
Do 19.05. 10:50261448 %1018
1018
1017
WSW 4 (11)
SSW - W
>= 10000Nicht signifikant 
BREMEN
DE 5
Do 19.05. 10:20251450 %1018
1018
1017
SSW 3 (9)
S - WSW
>= 10000Nicht signifikant 
BREMEN
DE 5
Do 19.05. 09:50241350 %1018
1018
1017
SW 4 (11)
S - WSW
>= 10000Nicht signifikant 
BREMEN
DE 5
Do 19.05. 09:20241454 %1018
1018
1017
S 3 (10)>= 10000Nicht signifikant 
BREMEN
DE 5
Do 19.05. 08:50231561 %1018
1018
1017
S 3 (8)>= 10000Nicht signifikant 
BREMEN
DE 5
Do 19.05. 08:20211569 %1018
1018
1017
SSO 3 (8)>= 10000Nicht signifikant 
BREMEN
DE 5
Do 19.05. 07:50191473 %1018
1018
1017
SO 2 (5)>= 10000Nicht signifikant 
BREMEN
DE 5
Do 19.05. 07:20191473 %1018
1018
1017
SO 2 (5)>= 10000Nicht signifikant 
BREMEN
DE 5
Do 19.05. 06:50191473 %1018
1018
1017
SO 2 (3)
O - S
>= 10000Nicht signifikant 
BREMEN
DE 5
Do 19.05. 06:20181477 %1018
1018
1017
SO 2 (3)>= 10000Nicht signifikant 
BREMEN
DE 5
Do 19.05. 05:50171482 %1018
1018
1017
Uml 1 (2)>= 10000Nicht signifikant 
BREMEN
DE 5
Do 19.05. 05:20171482 %1018
1018
1017
SO 2 (4)
O - SSO
>= 10000Nicht signifikant 
BREMEN
DE 5
Do 19.05. 04:50171482 %1018
1018
1017
SO 2 (3)
O - SSO
7000Nicht signifikant 
BREMEN
DE 5
Do 19.05. 04:201414100 %1018
1018
1017
SO 1 (2)3300Nicht signifikantNebeldunst
BREMEN
DE 5
Do 19.05. 03:50151388 %1019
1019
1018
SW 1 (1)4800Nicht signifikantNebeldunst
BREMEN
DE 5
Do 19.05. 03:20161594 %1018
1018
1017
SSO 1 (2)6000Nicht signifikant 
BREMEN
DE 5
Do 19.05. 02:50151494 %1019
1019
1018
Uml 1 (2)6000Nicht signifikant 
BREMEN
DE 5
Do 19.05. 02:20161488 %1019
1019
1018
Uml 1 (1)7000Nicht signifikant 
BREMEN
DE 5
Do 19.05. 01:50151494 %1019
1019
1018
WNW 2 (4)8000Nicht signifikant 
BREMEN
DE 5
Do 19.05. 01:20171482 %1019
1019
1018
Uml 1 (2)>= 10000Nicht signifikant 
BREMEN
DE 5
Do 19.05. 00:50171482 %1019
1019
1018
WNW 2 (5)>= 10000Nicht signifikant 
BREMEN
DE 5
Do 19.05. 00:20181583 %1019
1019
1018
WNW 2 (4)>= 10000Nicht signifikant 
BREMEN
DE 5
Mi 18.05. 23:50191578 %1019
1019
1018
NW 2 (5)>= 10000Nicht signifikant 
BREMEN
DE 5
Mi 18.05. 23:20201573 %1019
1019
1018
SSO 1 (2)>= 10000Nicht signifikant 
BREMEN
DE 5
Mi 18.05. 22:50211569 %1019
1019
1018
Uml 1 (1)>= 10000Nicht signifikant 
BREMEN
DE 5
Mi 18.05. 22:20221565 %1019
1019
1018
W 2 (3)>= 10000Nicht signifikant 
BREMEN
DE 5
Mi 18.05. 21:50231561 %1019
1019
1018
W 2 (3)
SW - NW
>= 10000Nicht signifikant 
BREMEN
DE 5
Mi 18.05. 21:20231561 %1019
1019
1018
SSO 2 (6)>= 10000Nicht signifikant 
BREMEN
DE 5
Mi 18.05. 20:50241557 %1019
1019
1018
SO 2 (5)>= 10000Nicht signifikant 
BREMEN
DE 5
Mi 18.05. 20:20251554 %1019
1019
1018
SO 2 (4)>= 10000Nicht signifikant 
BREMEN
DE 5
Mi 18.05. 19:50261551 %1019
1019
1018
SO 2 (5)
Bald Übergang zu:
WNW 2 (4)
>= 10000Nicht signifikant 
BREMEN
DE 5
Mi 18.05. 19:20261551 %1019
1019
1018
SSO 2 (5)
Bald Übergang zu:
WNW 2 (4)
>= 10000Nicht signifikant 
BREMEN
DE 5
Mi 18.05. 18:50261551 %1019
1019
1018
S 2 (6)
Ab 19:30 Übergang zu:
WNW 2 (4)
>= 10000Nicht signifikant 
BREMEN
DE 5
Mi 18.05. 18:20271548 %1019
1019
1018
S 2 (4)
Bald Übergang zu:
WNW 2 (5)
>= 10000Nicht signifikant 
BREMEN
DE 5
Mi 18.05. 17:50271445 %1019
1019
1018
S 3 (7)
SSO - SW
>= 10000Nicht signifikant 
BREMEN
DE 5
Mi 18.05. 17:20271445 %1019
1019
1018
SSW 2 (6)
S - SW
>= 10000Nicht signifikant 
BREMEN
DE 5
Mi 18.05. 16:50281237 %1019
1019
1018
S 2 (6)
SSO - SW
>= 10000Nicht signifikant 
BREMEN
DE 5
Mi 18.05. 16:20291235 %1019
1019
1018
SSW 2 (6)
SO - W
>= 10000Nicht signifikant 
BREMEN
DE 5
Mi 18.05. 15:50291133 %1020
1020
1019
SW 3 (8)
S - W
>= 10000Nicht signifikant 
BREMEN
DE 5
Mi 18.05. 15:20281135 %1020
1020
1019
SSW 3 (8)
S - WSW
>= 10000Nicht signifikant 

Altimeter: Einstellung am Altimeter (Höhenmesser), die Höhe 0 muss auf diesen Luftdruckwert zeigen, damit das Gerät die Stationshöhe richtig anzeigt.

NN: Luftdruck reduziert auf "Normal Null", auf Meereshöhe, dieser von der Temperatur abhängige Wert wird bisweilen unkorrekt einfach als "Luftdruck" bezeichnet. Eigentlich nur eine fiktive Größe, die es erlaubt, Stationen auf unterschiedlichen Höhen miteinander zu vergleichen.

Station: Realer Luftdruck an der Station.